Purdys Mills, New York
Current Conditions -  °F | °C
As of 11:12 PM on Tuesday 27 Jan 2015 (Local Time) from KPBG Reporting Station
Light Snow Light Snow  
Wind Chill: -22°   Ceiling: Unl
Heat Index: -12°   Visibility: 5mi
Dew Point: -15°   Wind: 18mph
Humidity: 80%   Direction: 360°N
Pressure: 29.97"   Gusts: NA
Location:  44.8543°N, 73.663°W
Report Text: KPBG 280412Z AUTO 36016KT 5SM -SN FEW016 SCT020 M12/M15 A2997 RMK AO2 P0000 T11221150
Loading
Personal Weather Stations






























Interactive Weather Map New forecast layout! Learn more

10-Day Weather Forecast

Advertisements
Track Severe Weather on mobile